This is the latest recevied weather packets stored in our database for station/object EB2EMZ-W. If no packets are shown the sender has not sent any weather packets the latest 10 day(s).
| Time | Temp. | Humidity | Pressure | Rain* | Wind** | Luminosity | Snow |
|---|---|---|---|---|---|---|---|
| 1778006640 | 13.33° C | 75% | 997 hPa | 0 mm | - | - | - |
| 1778004826 | 13.89° C | 68% | 997 hPa | 1.02 mm | - | - | - |
| 1778003013 | 13.89° C | 67% | 997 hPa | 1.02 mm | - | - | - |
| 1778001201 | 13.33° C | 65% | 997 hPa | 0 mm | - | - | - |
| 1777999386 | 14.44° C | 68% | 997 hPa | 3.05 mm | - | - | - |
| 1777997572 | 15° C | 63% | 997 hPa | 3.05 mm | - | - | - |
| 1777995759 | 16.11° C | 49% | 996.7 hPa | 0 mm | - | - | - |
| 1777993946 | 18.33° C | 48% | 997 hPa | 0 mm | - | - | - |
| 1777992132 | 15.56° C | 60% | 997 hPa | 1.02 mm | - | - | - |
| 1777988508 | 16.11° C | 55% | 997 hPa | 1.02 mm | - | - | - |
| 1777986697 | 16.11° C | 53% | 997 hPa | 0 mm | - | - | - |
| 1777984886 | 17.22° C | 47% | 997 hPa | 0 mm | - | - | - |
| 1777983076 | 18.89° C | 48% | 997 hPa | 1.02 mm | - | - | - |
| 1777981266 | 15° C | 65% | 997 hPa | 2.03 mm | - | - | - |
| 1777979454 | 13.33° C | 64% | 997 hPa | 1.02 mm | - | - | - |
| 1777977645 | 18.33° C | 43% | 997 hPa | 0 mm | - | - | - |
| 1777974024 | 16.11° C | 39% | 997 hPa | 0 mm | - | - | - |
| 1777972211 | 15.56° C | 42% | 997 hPa | 0 mm | - | - | - |
| 1777970399 | 15.56° C | 63% | 997 hPa | 0 mm | - | - | - |
| 1777968586 | 14.44° C | 69% | 997 hPa | 0 mm | - | - | - |
| 1777966775 | 13.89° C | 73% | 997 hPa | 0 mm | - | - | - |
| 1777964962 | 13.33° C | 78% | 997 hPa | 0 mm | - | - | - |
| 1777963150 | 12.22° C | 82% | 997 hPa | 0 mm | - | - | - |
| 1777961339 | 11.67° C | 84% | 997 hPa | 0 mm | - | - | - |
| 1777959526 | 11.67° C | 84% | 997 hPa | 0 mm | - | - | - |
* Rain latest hour (hover to see other rain measurements)
** Current wind speed in m/s (hover to see current wind gust speed)